Banks, Oregon
Current Conditions -  °F | °C
As of 9:53 PM on Tuesday 25 Nov 2014 (Local Time) from KHIO Reporting Station
Broken Clouds Broken Clouds  
Wind Chill: 57°   Ceiling: 6000
Heat Index: 57°   Visibility: 10mi
Dew Point: 53°   Wind: 3mph
Humidity: 87%   Direction: 170°S
Pressure: 30.28"   Gusts: NA
Location:  45.62°N, 123.11°W
Report Text: KHIO 260553Z AUTO 17003KT 10SM BKN060 14/12 A3028 RMK AO2 SLP251 T01390117 10161 20139 55004
Loading
Personal Weather Stations






























Interactive Weather Map New forecast layout! Learn more

10-Day Weather Forecast

Advertisements
Track Severe Weather on mobile